Time;durP1;ratioP1;P1;durP2;ratioP2;P2;SDS_P1;SDS_P2;PMS_P1;PMS_P2;Temp;Humidity;BMP_temperature;BMP_pressure;BME280_temperature;BME280_humidity;BME280_pressure;Samples;Min_cycle;Max_cycle;Signal;HPM_P1;HPM_P2
2021/07/13 00:01:20;;;;;;;;;0.00;0.00;;;;;26.23;47.00;100326.16;5056108;28;45478;-67
2021/07/13 00:03:48;;;;;;;;;0.00;0.00;;;;;26.22;46.98;100329.81;5037940;28;45404;-67
2021/07/13 00:06:14;;;;;;;;;0.00;0.00;;;;;26.22;47.21;100340.72;5055681;28;45420;-67
2021/07/13 00:08:40;;;;;;;;;0.00;0.00;;;;;26.21;46.97;100336.25;5056047;28;45414;-67
2021/07/13 00:11:05;;;;;;;;;0.00;0.00;;;;;26.20;47.03;100329.03;5055805;28;45461;-67
2021/07/13 00:13:31;;;;;;;;;0.00;0.00;;;;;26.21;47.23;100330.81;5055628;28;45496;-67
2021/07/13 00:15:56;;;;;;;;;0.00;0.00;;;;;26.19;47.09;100321.84;5055639;28;45433;-67
2021/07/13 00:18:23;;;;;;;;;0.00;0.00;;;;;26.19;46.94;100320.00;5037516;28;45540;-67
2021/07/13 00:20:48;;;;;;;;;0.00;0.00;;;;;26.19;47.10;100316.38;5055548;28;44888;-67
2021/07/13 00:23:14;;;;;;;;;0.00;0.00;;;;;26.17;47.12;100312.88;5056009;28;45533;-67
2021/07/13 00:25:39;;;;;;;;;0.00;0.00;;;;;26.14;46.83;100312.09;5055792;28;45564;-67
2021/07/13 00:28:06;;;;;;;;;0.00;0.00;;;;;26.19;46.93;100321.84;5055400;28;45457;-67
2021/07/13 00:30:32;;;;;;;;;0.00;0.00;;;;;26.18;46.96;100325.53;5055488;28;45415;-67
2021/07/13 00:32:58;;;;;;;;;0.00;0.00;;;;;26.16;46.82;100317.47;5056030;28;45374;-67
2021/07/13 00:35:23;;;;;;;;;0.00;0.00;;;;;26.17;47.21;100323.78;5055308;28;45358;-67
2021/07/13 00:37:49;;;;;;;;;0.00;0.00;;;;;26.15;46.64;100312.97;5055138;28;45428;-67
2021/07/13 00:40:18;;;;;;;;;0.00;0.00;;;;;26.17;47.25;100310.16;5055250;28;45439;-67
2021/07/13 00:42:45;;;;;;;;;0.00;0.00;;;;;26.17;47.16;100307.44;5055533;28;45488;-67
2021/07/13 00:45:11;;;;;;;;;0.00;0.00;;;;;26.14;47.03;100287.56;5053728;28;47484;-67
2021/07/13 00:47:37;;;;;;;;;0.00;0.00;;;;;26.17;46.99;100288.34;5055349;28;45470;-66
2021/07/13 00:50:03;;;;;;;;;0.00;0.00;;;;;26.15;46.96;100282.97;5055638;28;45844;-67
2021/07/13 00:52:29;;;;;;;;;0.00;0.00;;;;;26.15;46.84;100269.34;5055372;28;45427;-67
2021/07/13 00:54:56;;;;;;;;;0.00;0.00;;;;;26.15;47.08;100272.06;5036433;28;45766;-67
2021/07/13 00:57:21;;;;;;;;;0.00;0.00;;;;;26.17;47.24;100288.34;5055445;28;45460;-67
2021/07/13 00:59:47;;;;;;;;;0.00;0.00;;;;;26.14;47.13;100290.28;5054869;28;45351;-67
2021/07/13 01:02:15;;;;;;;;;0.00;0.00;;;;;26.15;47.14;100289.28;5055913;28;45552;-67
2021/07/13 01:04:45;;;;;;;;;0.00;0.00;;;;;26.14;47.06;100273.94;5055276;28;45445;-67
2021/07/13 01:07:36;;;;;;;;;0.00;0.00;;;;;26.14;46.99;100273.06;5054831;28;45463;-67
2021/07/13 01:10:08;;;;;;;;;0.00;0.00;;;;;26.14;46.93;100283.97;5046061;28;45414;-67
2021/07/13 01:13:00;;;;;;;;;0.00;0.00;;;;;26.14;46.86;100283.97;5053803;28;45508;-67
2021/07/13 01:15:32;;;;;;;;;0.00;0.00;;;;;26.12;46.66;100267.69;5054852;28;45690;-67
2021/07/13 01:18:03;;;;;;;;;0.00;0.00;;;;;26.14;47.10;100265.75;5054901;28;45593;-66
2021/07/13 01:20:31;;;;;;;;;0.00;0.00;;;;;26.13;46.72;100263.09;5055064;28;45402;-67
2021/07/13 01:23:25;;;;;;;;;0.00;0.00;;;;;26.13;46.93;100254.94;5054777;28;45432;-66
2021/07/13 01:26:02;;;;;;;;;0.00;0.00;;;;;26.11;46.78;100268.63;5054686;28;46441;-65
2021/07/13 01:28:34;;;;;;;;;0.00;0.00;;;;;26.12;47.13;100261.38;5036537;28;44967;-66
2021/07/13 01:31:05;;;;;;;;;0.00;0.00;;;;;26.11;46.70;100260.47;5054769;28;45504;-66
2021/07/13 01:33:32;;;;;;;;;0.00;0.00;;;;;26.09;46.72;100248.78;5055049;28;45382;-66
2021/07/13 01:36:22;;;;;;;;;0.00;0.00;;;;;26.11;46.91;100254.13;5054488;28;46480;-66
2021/07/13 01:38:50;;;;;;;;;0.00;0.00;;;;;26.09;46.86;100251.50;5054467;28;45535;-66
2021/07/13 01:41:22;;;;;;;;;0.00;0.00;;;;;26.11;46.95;100259.59;5054525;28;45436;-66
2021/07/13 01:43:49;;;;;;;;;0.00;0.00;;;;;26.09;46.74;100256.94;5054965;28;45398;-66
2021/07/13 01:46:16;;;;;;;;;0.00;0.00;;;;;26.09;46.93;100262.41;5054277;28;45387;-66
2021/07/13 01:48:44;;;;;;;;;0.00;0.00;;;;;26.09;47.01;100278.75;5054440;28;45950;-65
2021/07/13 01:51:10;;;;;;;;;0.00;0.00;;;;;26.08;46.76;100293.38;5054546;28;45479;-66
2021/07/13 01:53:37;;;;;;;;;0.00;0.00;;;;;26.08;47.00;100298.81;5054787;28;45517;-66
2021/07/13 01:56:05;;;;;;;;;0.00;0.00;;;;;26.08;47.03;100297.94;5036161;28;47625;-66
2021/07/13 01:58:33;;;;;;;;;0.00;0.00;;;;;26.07;46.60;100288.00;5054112;28;45071;-66
2021/07/13 02:01:09;;;;;;;;;0.00;0.00;;;;;26.07;47.33;100280.69;5054432;28;45453;-66
2021/07/13 02:03:37;;;;;;;;;0.00;0.00;;;;;26.08;47.11;100282.47;5054588;28;45538;-67
2021/07/13 02:06:06;;;;;;;;;0.00;0.00;;;;;26.08;46.97;100281.59;5054561;28;45394;-65
2021/07/13 02:08:35;;;;;;;;;0.00;0.00;;;;;26.07;46.96;100275.25;5057565;28;45561;-66
2021/07/13 02:11:01;;;;;;;;;0.00;0.00;;;;;26.06;46.90;100278.94;5039815;28;45464;-66
2021/07/13 02:13:27;;;;;;;;;0.00;0.00;;;;;26.07;47.10;100277.09;5057639;28;45382;-66
2021/07/13 02:15:52;;;;;;;;;0.00;0.00;;;;;26.05;47.06;100271.72;5039371;28;45474;-66
2021/07/13 02:18:18;;;;;;;;;0.00;0.00;;;;;26.06;47.16;100278.94;5057688;28;45382;-66
2021/07/13 02:20:44;;;;;;;;;0.00;0.00;;;;;26.07;46.88;100283.41;5057852;28;45455;-67
2021/07/13 02:23:10;;;;;;;;;0.00;0.00;;;;;26.07;46.89;100285.28;5057971;28;45341;-67
2021/07/13 02:25:36;;;;;;;;;0.00;0.00;;;;;26.06;46.76;100278.94;5056960;28;45742;-66
2021/07/13 02:28:16;;;;;;;;;0.00;0.00;;;;;26.05;47.00;100269.00;5057470;28;45500;-66
2021/07/13 02:30:48;;;;;;;;;0.00;0.00;;;;;26.04;46.90;100259.09;5057475;28;45532;-67
2021/07/13 02:33:57;;;;;;;;;0.00;0.00;;;;;26.01;46.87;100259.25;5057050;28;45776;-67
2021/07/13 02:36:28;;;;;;;;;0.00;0.00;;;;;26.03;46.53;100267.34;4975319;28;45926;-67
2021/07/13 02:38:56;;;;;;;;;0.00;0.00;;;;;26.03;46.93;100270.06;4975866;28;45426;-67
2021/07/13 02:41:24;;;;;;;;;0.00;0.00;;;;;26.03;46.93;100272.78;4975597;28;45318;-67
2021/07/13 02:43:52;;;;;;;;;0.00;0.00;;;;;26.02;46.93;100271.91;4975486;28;45431;-67
2021/07/13 02:46:19;;;;;;;;;0.00;0.00;;;;;26.01;46.67;100264.69;4974626;28;46269;-66
2021/07/13 02:48:45;;;;;;;;;0.00;0.00;;;;;26.01;46.69;100277.44;4975181;28;45416;-67
2021/07/13 02:51:14;;;;;;;;;0.00;0.00;;;;;26.00;46.85;100281.16;4975336;28;45424;-66
2021/07/13 02:53:44;;;;;;;;;0.00;0.00;;;;;25.99;46.52;100285.69;4974771;28;45431;-66
2021/07/13 02:56:11;;;;;;;;;0.00;0.00;;;;;25.98;46.81;100281.22;4974941;28;45913;-66
2021/07/13 02:58:38;;;;;;;;;0.00;0.00;;;;;25.98;46.69;100277.63;4974848;28;45640;-66
2021/07/13 03:01:06;;;;;;;;;0.00;0.00;;;;;25.98;46.88;100280.38;4974890;28;44851;-67
2021/07/13 03:03:31;;;;;;;;;0.00;0.00;;;;;25.98;46.66;100292.13;4974842;28;45588;-67
2021/07/13 03:05:57;;;;;;;;;0.00;0.00;;;;;25.98;46.78;100285.81;4974585;28;45556;-66
2021/07/13 03:08:23;;;;;;;;;1.00;0.00;;;;;25.98;46.88;100280.38;4974892;28;45478;-66
2021/07/13 03:10:50;;;;;;;;;0.00;0.00;;;;;25.97;46.93;100279.47;4974797;28;45511;-66
2021/07/13 03:13:19;;;;;;;;;0.00;0.00;;;;;25.96;46.96;100271.41;5012145;28;45540;-66
2021/07/13 03:15:44;;;;;;;;;0.00;0.00;;;;;25.97;46.90;100278.59;5036236;28;45441;-66
2021/07/13 03:18:10;;;;;;;;;0.00;0.00;;;;;25.95;47.05;100292.28;5035860;28;44830;-66
2021/07/13 03:20:37;;;;;;;;;0.00;0.00;;;;;25.95;46.67;100289.56;5036702;28;45522;-66
2021/07/13 03:23:04;;;;;;;;;0.00;0.00;;;;;25.95;46.63;100292.28;5036709;28;45501;-66
2021/07/13 03:25:33;;;;;;;;;0.00;0.00;;;;;25.94;46.67;100291.44;5036414;28;46386;-66
2021/07/13 03:28:00;;;;;;;;;0.00;0.00;;;;;25.94;46.70;100274.22;5036967;28;45407;-66
2021/07/13 03:30:26;;;;;;;;;0.00;0.00;;;;;25.93;46.75;100270.63;5036113;28;45462;-67
2021/07/13 03:32:53;;;;;;;;;0.00;0.00;;;;;25.94;46.87;100274.22;5036532;28;45815;-67
2021/07/13 03:35:20;;;;;;;;;0.00;0.00;;;;;25.94;46.68;100276.94;5035993;28;45575;-66
2021/07/13 03:37:48;;;;;;;;;0.00;0.00;;;;;25.90;47.05;100267.19;5035920;28;45442;-67
2021/07/13 03:40:15;;;;;;;;;0.00;0.00;;;;;25.93;46.83;100261.53;5036251;28;45421;-66
2021/07/13 03:42:47;;;;;;;;;0.00;0.00;;;;;25.92;46.99;100248.91;5036389;28;45362;-67
2021/07/13 03:45:20;;;;;;;;;0.00;0.00;;;;;25.92;46.90;100254.34;5036022;28;45779;-66
2021/07/13 03:47:51;;;;;;;;;0.00;0.00;;;;;25.91;46.80;100260.75;5035705;28;45410;-66
2021/07/13 03:50:19;;;;;;;;;0.00;0.00;;;;;25.91;46.86;100260.75;5036257;28;45826;-67
2021/07/13 03:52:44;;;;;;;;;0.00;0.00;;;;;25.88;46.80;100260.91;5036117;28;45472;-66
2021/07/13 03:55:12;;;;;;;;;0.00;0.00;;;;;25.91;46.99;100269.78;5035878;28;46278;-66
2021/07/13 03:57:39;;;;;;;;;0.00;0.00;;;;;25.92;46.84;100270.69;5036089;28;45423;-66
2021/07/13 04:00:09;;;;;;;;;0.00;0.00;;;;;25.92;46.59;100270.69;5048153;28;45526;-66
2021/07/13 04:02:35;;;;;;;;;0.00;0.00;;;;;25.91;47.07;100275.25;5056254;28;45485;-67
2021/07/13 04:05:00;;;;;;;;;0.00;0.00;;;;;25.91;46.62;100272.50;5055720;28;46326;-67
2021/07/13 04:07:27;;;;;;;;;0.00;0.00;;;;;25.92;46.77;100265.25;5055778;28;45402;-66
2021/07/13 04:09:52;;;;;;;;;0.00;0.00;;;;;25.93;46.93;100264.25;5056000;28;45503;-66
2021/07/13 04:12:18;;;;;;;;;0.00;0.00;;;;;25.92;46.83;100260.66;5056313;28;45413;-66
2021/07/13 04:14:43;;;;;;;;;0.00;0.00;;;;;25.94;46.85;100272.34;5055830;28;45393;-67
2021/07/13 04:17:08;;;;;;;;;0.00;0.00;;;;;25.93;46.77;100276.06;5055867;28;45342;-67
2021/07/13 04:19:34;;;;;;;;;0.00;0.00;;;;;25.93;46.89;100266.97;5055706;28;45457;-66
2021/07/13 04:21:59;;;;;;;;;0.00;0.00;;;;;25.93;46.67;100266.97;5056216;28;45411;-66
2021/07/13 04:24:24;;;;;;;;;0.00;0.00;;;;;25.93;46.89;100272.44;5054871;28;45337;-66
2021/07/13 04:26:50;;;;;;;;;0.00;0.00;;;;;25.93;46.79;100266.97;5055793;28;45598;-66
2021/07/13 04:29:15;;;;;;;;;0.00;0.00;;;;;25.91;46.73;100263.47;5036705;28;45406;-68
2021/07/13 04:31:42;;;;;;;;;0.00;0.00;;;;;25.96;46.86;100265.94;5055753;28;45708;-66
2021/07/13 04:34:09;;;;;;;;;0.00;0.00;;;;;25.92;46.86;100266.13;5055474;28;45742;-67
2021/07/13 04:36:37;;;;;;;;;0.00;0.00;;;;;25.94;46.95;100268.75;5055689;28;45508;-66
2021/07/13 04:39:06;;;;;;;;;0.00;0.00;;;;;25.93;46.52;100266.97;5055386;28;45485;-67
2021/07/13 04:41:32;;;;;;;;;0.00;0.00;;;;;25.94;46.59;100271.47;5055385;28;45403;-67
2021/07/13 04:43:58;;;;;;;;;0.00;0.00;;;;;25.94;46.97;100280.53;5055131;28;45547;-67
2021/07/13 04:46:24;;;;;;;;;0.00;0.00;;;;;25.94;46.95;100274.22;5055334;28;45457;-67
2021/07/13 04:48:50;;;;;;;;;0.00;0.00;;;;;25.94;46.57;100279.66;5055242;28;45499;-66
2021/07/13 04:51:15;;;;;;;;;0.00;0.00;;;;;25.94;46.61;100277.81;5037555;28;45445;-66
2021/07/13 04:53:42;;;;;;;;;0.00;0.00;;;;;25.94;46.89;100275.06;5055219;28;46146;-66
2021/07/13 04:56:09;;;;;;;;;0.00;0.00;;;;;25.94;46.60;100275.06;5055471;28;45843;-66
2021/07/13 04:58:34;;;;;;;;;0.00;0.00;;;;;25.94;46.74;100268.75;5053611;28;45838;-67
2021/07/13 05:01:00;;;;;;;;;0.00;0.00;;;;;25.93;46.62;100264.25;5054942;28;45504;-66
2021/07/13 05:03:25;;;;;;;;;0.00;0.00;;;;;25.94;46.74;100266.03;5055210;28;45581;-66
2021/07/13 05:05:50;;;;;;;;;0.00;0.00;;;;;25.94;46.60;100275.06;5055297;28;45597;-66
2021/07/13 05:08:16;;;;;;;;;0.00;0.00;;;;;25.94;46.54;100266.91;5055151;28;45346;-67
2021/07/13 05:10:41;;;;;;;;;0.00;0.00;;;;;25.93;46.84;100273.34;5055182;28;45549;-66
2021/07/13 05:13:09;;;;;;;;;0.00;0.00;;;;;25.93;46.62;100278.78;5037102;28;45562;-67
2021/07/13 05:15:36;;;;;;;;;0.00;0.00;;;;;25.96;46.60;100279.56;5053486;28;45579;-67
2021/07/13 05:18:01;;;;;;;;;0.00;0.00;;;;;25.95;46.71;100275.94;5054984;28;45450;-66
2021/07/13 05:20:28;;;;;;;;;0.00;0.00;;;;;25.95;46.75;100278.66;5055147;28;45322;-66
2021/07/13 05:22:59;;;;;;;;;0.00;0.00;;;;;25.95;46.68;100284.13;5054606;28;45473;-66
2021/07/13 05:25:24;;;;;;;;;0.75;0.00;;;;;25.95;46.61;100284.13;5055075;28;45444;-67
2021/07/13 05:27:50;;;;;;;;;0.00;0.00;;;;;25.96;46.74;100287.75;5036815;28;45476;-66
2021/07/13 05:30:18;;;;;;;;;0.00;0.00;;;;;25.95;46.75;100281.41;5054969;28;45457;-66
2021/07/13 05:32:43;;;;;;;;;0.00;0.00;;;;;25.94;46.76;100285.09;5054885;28;46501;-67
2021/07/13 05:35:09;;;;;;;;;0.00;0.00;;;;;25.94;46.53;100296.00;5036253;28;45348;-66
2021/07/13 05:37:35;;;;;;;;;0.00;0.00;;;;;25.92;47.03;100290.63;5054888;28;45371;-66
2021/07/13 05:40:04;;;;;;;;;0.00;0.00;;;;;25.96;46.83;100298.66;5054585;28;45346;-66
2021/07/13 05:42:31;;;;;;;;;0.00;0.00;;;;;25.95;46.74;100300.47;5058063;28;45437;-67
2021/07/13 05:44:57;;;;;;;;;0.00;0.00;;;;;25.95;46.81;100303.19;5058065;28;44877;-67
2021/07/13 05:47:22;;;;;;;;;0.00;0.00;;;;;25.93;46.70;100302.41;5057834;28;45753;-67
2021/07/13 05:49:48;;;;;;;;;0.00;0.00;;;;;25.95;46.58;100308.66;5058363;28;45469;-67
2021/07/13 05:52:14;;;;;;;;;0.00;0.00;;;;;25.94;46.90;100310.50;5057760;28;46059;-66
2021/07/13 05:54:39;;;;;;;;;0.00;0.00;;;;;25.94;46.77;100310.50;5058007;28;45366;-66
2021/07/13 05:57:04;;;;;;;;;0.00;0.00;;;;;25.93;46.66;100305.13;5039725;28;45343;-66
2021/07/13 05:59:30;;;;;;;;;0.00;0.00;;;;;25.94;46.83;100313.22;5058010;28;45562;-67
2021/07/13 06:01:55;;;;;;;;;0.00;0.00;;;;;25.94;46.78;100309.63;5057727;28;46039;-67
2021/07/13 06:04:20;;;;;;;;;0.00;0.00;;;;;25.94;46.61;100309.63;5057895;28;45400;-67
2021/07/13 06:06:46;;;;;;;;;0.00;0.00;;;;;25.95;46.77;100314.09;5057906;28;45377;-65
2021/07/13 06:09:11;;;;;;;;;0.00;0.00;;;;;25.94;46.68;100309.63;5058411;28;45427;-67
2021/07/13 06:11:37;;;;;;;;;0.00;0.00;;;;;25.96;46.39;100313.13;5057797;28;45553;-66
2021/07/13 06:14:02;;;;;;;;;1.00;0.00;;;;;25.96;46.69;100298.66;5057490;28;45453;-66
2021/07/13 06:16:28;;;;;;;;;0.00;0.00;;;;;25.95;46.87;100292.28;5057286;28;46025;-67
2021/07/13 06:18:53;;;;;;;;;0.00;0.00;;;;;25.96;46.61;100298.66;5057293;28;45413;-66
2021/07/13 06:21:18;;;;;;;;;0.00;0.00;;;;;25.94;46.48;100294.16;5057186;28;45984;-67
2021/07/13 06:23:44;;;;;;;;;1.00;0.00;;;;;25.94;46.34;100285.97;5057000;28;45421;-66
2021/07/13 06:26:10;;;;;;;;;0.00;0.00;;;;;25.96;46.86;100298.66;5057468;28;45766;-66
2021/07/13 06:28:36;;;;;;;;;0.00;0.00;;;;;25.97;46.13;100305.84;5057072;28;45004;-66
2021/07/13 06:31:02;;;;;;;;;0.00;0.00;;;;;25.91;46.82;100297.03;5056654;28;45369;-66
2021/07/13 06:33:27;;;;;;;;;0.00;0.00;;;;;25.97;46.62;100303.97;5039158;28;45954;-66
2021/07/13 06:35:52;;;;;;;;;0.00;0.00;;;;;25.97;46.48;100305.84;5057208;28;45389;-66
2021/07/13 06:38:18;;;;;;;;;0.00;0.00;;;;;25.97;46.64;100308.56;5057080;28;45503;-67
2021/07/13 06:40:44;;;;;;;;;0.00;0.00;;;;;25.96;46.78;100313.13;5056371;28;45397;-65
2021/07/13 06:43:09;;;;;;;;;0.00;0.00;;;;;25.96;46.67;100307.69;5057056;28;45710;-66
2021/07/13 06:45:35;;;;;;;;;0.00;0.00;;;;;25.95;46.52;100300.47;5056472;28;45528;-66
2021/07/13 06:48:00;;;;;;;;;0.00;0.00;;;;;25.95;46.63;100308.66;5056839;28;45365;-67
2021/07/13 06:50:27;;;;;;;;;0.00;0.00;;;;;25.96;46.79;100295.91;5056910;28;45846;-66
2021/07/13 06:52:53;;;;;;;;;0.00;0.00;;;;;25.96;46.62;100290.47;5056270;28;45413;-66
2021/07/13 06:55:20;;;;;;;;;0.00;0.00;;;;;25.97;46.73;100284.03;5056756;28;45508;-66
2021/07/13 06:57:45;;;;;;;;;0.00;0.00;;;;;25.96;46.69;100283.16;5056637;28;45456;-66
2021/07/13 07:00:12;;;;;;;;;0.00;0.00;;;;;25.96;46.77;100282.31;5055708;28;46096;-66
2021/07/13 07:02:38;;;;;;;;;11.00;11.00;;;;;25.87;46.57;100280.94;5056100;28;45556;-66
2021/07/13 07:05:04;;;;;;;;;10.67;10.67;;;;;25.60;46.99;100283.38;5056317;28;45417;-67
2021/07/13 07:07:29;;;;;;;;;9.33;9.33;;;;;25.34;47.27;100280.25;5056403;28;45382;-66
2021/07/13 07:09:55;;;;;;;;;17.33;16.33;;;;;25.08;47.58;100285.22;5056159;28;46013;-66
2021/07/13 07:12:20;;;;;;;;;18.33;18.33;;;;;24.79;47.98;100278.59;5056163;28;45362;-66
2021/07/13 07:14:46;;;;;;;;;12.67;12.67;;;;;24.59;48.48;100282.34;5056387;28;45437;-66
2021/07/13 07:17:11;;;;;;;;;7.00;7.00;;;;;24.42;49.03;100276.88;5055623;28;45653;-66
2021/07/13 07:19:36;;;;;;;;;7.00;7.00;;;;;24.33;49.31;100265.50;5056789;28;45463;-67
2021/07/13 07:22:02;;;;;;;;;5.00;5.00;;;;;24.40;49.38;100270.63;5055249;28;45601;-66
2021/07/13 07:24:29;;;;;;;;;5.67;4.67;;;;;24.46;49.76;100271.22;5042814;28;45780;-67
2021/07/13 07:26:57;;;;;;;;;4.00;4.00;;;;;24.55;49.27;100264.44;5037833;28;45762;-66
2021/07/13 07:29:23;;;;;;;;;3.67;3.67;;;;;24.61;49.58;100250.53;5055864;28;45418;-65
2021/07/13 07:31:50;;;;;;;;;4.00;4.00;;;;;24.68;49.36;100254.69;5055197;28;45473;-65
2021/07/13 07:34:16;;;;;;;;;3.67;3.00;;;;;24.76;49.34;100270.59;5056091;28;45372;-67
2021/07/13 07:36:43;;;;;;;;;5.67;3.67;;;;;24.83;49.21;100285.66;5056053;28;45454;-66
2021/07/13 07:39:09;;;;;;;;;3.67;3.67;;;;;24.90;49.02;100276.19;5054953;28;45552;-66
2021/07/13 07:41:47;;;;;;;;;2.00;2.00;;;;;24.96;49.14;100272.25;5056089;28;45538;-68
2021/07/13 07:44:12;;;;;;;;;4.00;3.00;;;;;25.02;49.23;100284.66;5055954;28;45618;-65
2021/07/13 07:46:41;;;;;;;;;4.33;4.33;;;;;25.05;49.28;100295.41;5056262;28;45412;-65
2021/07/13 07:49:08;;;;;;;;;6.33;6.33;;;;;25.09;49.17;100303.31;5055354;28;45624;-67
2021/07/13 07:51:34;;;;;;;;;5.00;5.00;;;;;25.13;49.47;100309.47;5055322;28;45517;-67
2021/07/13 07:53:59;;;;;;;;;5.67;4.67;;;;;25.13;49.44;100296.75;5055949;28;45413;-67
2021/07/13 07:56:25;;;;;;;;;8.00;5.00;;;;;25.14;49.24;100306.66;5053897;28;45496;-68
2021/07/13 07:58:50;;;;;;;;;6.00;6.00;;;;;25.19;49.04;100308.25;5043950;28;46140;-69
2021/07/13 08:01:17;;;;;;;;;6.67;4.00;;;;;25.20;48.73;100315.47;5024993;28;45571;-68
2021/07/13 08:03:42;;;;;;;;;4.00;4.00;;;;;25.22;49.01;100311.72;5041346;28;45359;-69
2021/07/13 08:06:07;;;;;;;;;6.67;6.67;;;;;25.23;49.11;100310.78;5055987;28;46009;-67
2021/07/13 08:08:33;;;;;;;;;5.00;5.00;;;;;25.25;48.79;100310.66;5055530;28;45375;-68
2021/07/13 08:11:00;;;;;;;;;5.00;4.00;;;;;25.27;49.01;100317.81;5054992;28;45342;-67
2021/07/13 08:13:32;;;;;;;;;4.67;4.67;;;;;25.28;49.17;100314.09;5052588;28;45417;-67
2021/07/13 08:15:57;;;;;;;;;4.67;4.00;;;;;25.30;49.02;100317.63;5039928;28;45674;-71
2021/07/13 08:18:23;;;;;;;;;6.67;5.67;;;;;25.35;49.04;100304.66;5038167;28;46062;-69
2021/07/13 08:20:49;;;;;;;;;3.00;3.00;;;;;25.40;49.49;100309.84;5048484;28;45358;-69
2021/07/13 08:23:15;;;;;;;;;2.67;2.67;;;;;25.43;49.34;100316.97;5046746;28;45406;-69
2021/07/13 08:25:41;;;;;;;;;3.00;3.00;;;;;25.45;49.52;100313.22;5055467;28;45440;-68
2021/07/13 08:28:06;;;;;;;;;2.67;2.67;;;;;25.45;49.49;100320.47;5052512;28;45485;-68
2021/07/13 08:30:31;;;;;;;;;3.33;3.33;;;;;25.53;49.37;100319.13;5043153;28;45495;-67
2021/07/13 08:32:57;;;;;;;;;3.00;3.00;;;;;25.56;49.54;100323.50;5044020;28;45415;-70
2021/07/13 08:35:24;;;;;;;;;4.00;4.00;;;;;25.60;49.58;100321.50;5055186;28;45512;-68
2021/07/13 08:37:51;;;;;;;;;4.00;4.00;;;;;25.61;49.18;100309.63;5037505;28;47309;-70
2021/07/13 08:40:17;;;;;;;;;2.00;2.00;;;;;25.59;49.42;100306.09;5054161;28;45417;-69
2021/07/13 08:42:44;;;;;;;;;2.33;2.33;;;;;25.68;49.40;100321.94;5054279;28;45521;-67
2021/07/13 08:45:12;;;;;;;;;1.33;1.33;;;;;25.70;49.36;100315.44;5054737;28;45536;-71
2021/07/13 08:47:40;;;;;;;;;3.33;2.00;;;;;25.71;49.45;100316.31;5050770;28;45399;-71
2021/07/13 08:50:15;;;;;;;;;1.00;1.00;;;;;25.74;49.26;100317.03;5054725;28;45411;-71
2021/07/13 08:52:40;;;;;;;;;2.67;2.67;;;;;25.73;49.03;100315.28;5041807;28;45478;-73
2021/07/13 08:55:09;;;;;;;;;2.00;2.00;;;;;25.77;49.01;100324.16;5027360;28;45433;-73
2021/07/13 08:57:38;;;;;;;;;1.33;1.33;;;;;25.80;49.13;100315.81;5049428;28;48266;-71
2021/07/13 09:00:09;;;;;;;;;1.00;1.00;;;;;25.82;49.19;100321.19;5047773;28;45574;-70
2021/07/13 09:02:34;;;;;;;;;1.33;1.33;;;;;25.84;49.04;100319.25;5054171;28;45877;-69
2021/07/13 09:04:59;;;;;;;;;0.00;0.00;;;;;25.83;48.81;100321.06;5054601;28;45388;-70
2021/07/13 09:07:28;;;;;;;;;2.33;2.33;;;;;25.85;48.97;100318.28;5055077;28;46053;-71
2021/07/13 09:10:05;;;;;;;;;2.00;1.00;;;;;25.86;48.88;100326.38;5047507;28;45669;-70
2021/07/13 09:12:31;;;;;;;;;3.00;3.00;;;;;25.87;48.94;100321.78;5038706;28;45380;-69
2021/07/13 09:15:02;;;;;;;;;2.33;2.33;;;;;25.88;49.12;100323.56;5049724;28;44992;-71
2021/07/13 09:17:37;;;;;;;;;1.00;1.00;;;;;25.90;49.04;100333.44;5053998;28;45426;-71
2021/07/13 09:20:07;;;;;;;;;1.00;1.00;;;;;25.88;48.87;100329.88;5054257;28;44908;-71
2021/07/13 09:22:40;;;;;;;;;1.00;1.00;;;;;25.91;48.89;100331.59;5054466;28;45409;-71
2021/07/13 09:25:28;;;;;;;;;1.33;1.33;;;;;25.92;49.13;100330.63;5052174;28;45505;-69
2021/07/13 09:28:15;;;;;;;;;2.67;1.67;;;;;25.92;48.93;100338.81;5047310;28;45391;-70
2021/07/13 09:30:49;;;;;;;;;2.67;0.67;;;;;25.92;48.91;100342.41;5055247;28;45426;-72
2021/07/13 09:33:33;;;;;;;;;2.00;1.67;;;;;25.95;49.18;100341.34;5054406;28;45374;-72
2021/07/13 09:36:11;;;;;;;;;0.00;0.00;;;;;25.94;48.78;100345.91;5053139;28;45411;-73
2021/07/13 09:38:52;;;;;;;;;2.00;2.00;;;;;25.97;48.96;100346.72;5047266;28;45522;-68
2021/07/13 09:41:20;;;;;;;;;1.00;1.00;;;;;25.94;48.64;100342.31;5045824;28;45694;-70
2021/07/13 09:43:45;;;;;;;;;1.33;1.33;;;;;25.98;49.30;100352.09;5053272;28;45504;-70
2021/07/13 09:46:36;;;;;;;;;1.00;1.00;;;;;26.00;49.09;100352.88;5053999;28;44882;-70
2021/07/13 09:49:23;;;;;;;;;0.67;0.33;;;;;26.01;49.16;100354.63;5051873;28;45374;-69
2021/07/13 09:51:56;;;;;;;;;1.00;1.00;;;;;26.03;49.24;100351.81;5053970;28;45413;-70
2021/07/13 09:54:35;;;;;;;;;2.00;0.67;;;;;26.01;48.94;100353.75;5051713;28;45401;-70
2021/07/13 09:57:03;;;;;;;;;1.33;1.33;;;;;26.00;49.35;100344.69;5054361;28;45420;-73
2021/07/13 09:59:29;;;;;;;;;1.00;1.00;;;;;26.02;49.08;100347.34;5053671;28;45394;-71
2021/07/13 10:01:54;;;;;;;;;1.00;1.00;;;;;26.04;49.29;100353.59;5052851;28;45407;-71
2021/07/13 10:04:21;;;;;;;;;1.00;1.00;;;;;26.06;49.36;100359.84;5054468;28;45195;-69
2021/07/13 10:06:50;;;;;;;;;1.00;1.00;;;;;26.05;49.46;100361.66;5054325;28;45438;-70
2021/07/13 10:09:20;;;;;;;;;0.67;0.67;;;;;26.05;49.17;100358.94;5053741;28;46317;-68
2021/07/13 10:11:45;;;;;;;;;0.33;0.33;;;;;26.06;49.43;100366.16;5054262;28;45532;-68
2021/07/13 10:14:11;;;;;;;;;1.00;1.00;;;;;26.05;49.21;100363.50;5035708;28;45533;-71
2021/07/13 10:16:37;;;;;;;;;0.67;0.67;;;;;26.07;49.50;100356.13;5054142;28;45435;-70
2021/07/13 10:19:06;;;;;;;;;1.00;1.00;;;;;26.07;49.45;100354.28;5052518;28;46105;-69
2021/07/13 10:21:34;;;;;;;;;0.67;0.67;;;;;26.08;49.65;100358.78;5053444;28;45797;-71
2021/07/13 10:24:01;;;;;;;;;2.00;2.00;;;;;26.09;49.77;100360.50;5054597;28;45567;-71
2021/07/13 10:26:51;;;;;;;;;0.00;0.00;;;;;26.09;49.08;100365.97;5054143;28;45417;-70
2021/07/13 10:29:48;;;;;;;;;0.00;0.00;;;;;26.11;49.58;100368.59;5057613;28;45440;-70
2021/07/13 10:32:17;;;;;;;;;1.00;1.00;;;;;26.13;49.43;100363.94;4980546;28;45506;-71
2021/07/13 10:34:42;;;;;;;;;2.67;2.67;;;;;26.13;49.71;100369.41;4987823;28;45488;-70
2021/07/13 10:37:32;;;;;;;;;1.00;1.00;;;;;26.13;49.79;100367.53;4975046;28;45467;-70
2021/07/13 10:40:06;;;;;;;;;1.00;1.00;;;;;26.13;49.61;100362.09;4985566;28;46016;-70
2021/07/13 10:42:41;;;;;;;;;1.00;1.00;;;;;26.13;49.64;100366.69;4959005;28;45620;-70
2021/07/13 10:45:15;;;;;;;;;1.00;1.00;;;;;26.12;49.61;100365.81;4975227;28;45463;-70
2021/07/13 10:48:07;;;;;;;;;1.00;1.00;;;;;26.13;49.60;100369.41;4974362;28;45460;-71
2021/07/13 10:50:39;;;;;;;;;1.00;1.00;;;;;26.13;49.57;100370.28;4961169;28;46643;-70
2021/07/13 10:53:13;;;;;;;;;2.00;2.00;;;;;26.10;49.49;100367.75;4966156;28;45801;-70
2021/07/13 10:55:38;;;;;;;;;1.33;1.33;;;;;26.12;49.62;100375.84;4972676;28;45672;-70
2021/07/13 10:58:09;;;;;;;;;1.00;0.00;;;;;26.12;49.65;100371.25;4997506;28;45848;-71
2021/07/13 11:00:58;;;;;;;;;1.67;1.67;;;;;26.13;49.76;100374.84;4978983;28;45454;-69
2021/07/13 11:03:32;;;;;;;;;1.00;1.00;;;;;26.14;50.12;100369.31;4976349;28;45464;-69
2021/07/13 11:06:00;;;;;;;;;2.00;2.00;;;;;26.14;50.32;100360.28;4977695;28;45470;-70
2021/07/13 11:11:19;;;;;;;;;2.00;2.00;;;;;26.17;50.46;100361.94;5056248;28;44966;-72
2021/07/13 11:13:45;;;;;;;;;2.00;1.33;;;;;26.19;50.46;100365.47;5059211;28;45383;-71
2021/07/13 11:16:17;;;;;;;;;2.67;2.67;;;;;26.21;50.40;100367.13;5058574;28;45445;-70
2021/07/13 11:18:42;;;;;;;;;2.00;2.00;;;;;26.24;50.72;100363.31;5058533;28;45477;-70
2021/07/13 11:21:20;;;;;;;;;3.00;3.00;;;;;26.28;51.19;100362.22;5060415;28;45759;-71
2021/07/13 11:23:47;;;;;;;;;1.00;1.00;;;;;26.32;51.08;100366.53;5056940;28;45406;-70
2021/07/13 11:26:15;;;;;;;;;3.00;3.00;;;;;26.36;51.29;100362.66;5037637;28;45505;-68
2021/07/13 11:28:48;;;;;;;;;2.00;2.00;;;;;26.40;51.15;100364.22;5072845;28;45715;-68
2021/07/13 11:31:37;;;;;;;;;3.33;2.00;;;;;26.45;50.88;100367.56;5076979;28;45436;-71
2021/07/13 11:34:06;;;;;;;;;1.33;1.33;;;;;26.47;51.15;100371.06;5076117;28;45799;-70